Time;durP1;ratioP1;P1;durP2;ratioP2;P2;SDS_P1;SDS_P2;PMS_P1;PMS_P2;Temp;Humidity;BMP_temperature;BMP_pressure;BME280_temperature;BME280_humidity;BME280_pressure;Samples;Min_cycle;Max_cycle;Signal;HPM_P1;HPM_P2
2022/02/01 00:00:56;;;;;;;17.60;8.50;;;;;;;-1.26;65.90;96353.45;109983;1247;69463;-65
2022/02/01 00:03:29;;;;;;;13.70;7.80;;;;;;;-1.26;65.86;96346.41;110235;1247;59689;-68
2022/02/01 00:15:06;;;;;;;20.80;12.20;;;;;;;-1.26;66.24;96344.73;109998;1247;68652;-66
2022/02/01 00:34:12;;;;;;;19.90;11.30;;;;;;;-1.37;67.11;96340.94;110078;1247;59691;-65
2022/02/01 00:36:47;;;;;;;17.10;9.80;;;;;;;-1.38;67.53;96340.96;110284;1247;71551;-67
2022/02/01 00:39:18;;;;;;;13.70;9.40;;;;;;;-1.37;67.57;96340.94;110264;1246;67841;-68
2022/02/01 00:41:51;;;;;;;18.00;10.60;;;;;;;-1.37;67.63;96343.13;110224;1247;69437;-67
2022/02/01 00:44:20;;;;;;;24.20;13.70;;;;;;;-1.37;67.40;96339.91;110281;1247;59656;-66
2022/02/01 00:46:50;;;;;;;25.50;11.90;;;;;;;-1.38;67.39;96337.02;110348;1247;59628;-67
2022/02/01 00:49:19;;;;;;;30.00;15.00;;;;;;;-1.38;67.23;96332.93;110241;1247;71580;-66
2022/02/01 00:51:49;;;;;;;27.30;14.30;;;;;;;-1.38;67.64;96328.49;110201;1247;67521;-67
2022/02/01 00:54:18;;;;;;;21.10;12.00;;;;;;;-1.38;67.36;96320.11;110199;1247;69480;-66
2022/02/01 00:56:48;;;;;;;27.80;15.40;;;;;;;-1.38;67.15;96316.02;110196;1247;59747;-66
2022/02/01 00:59:17;;;;;;;23.20;13.00;;;;;;;-1.39;67.31;96318.42;110445;1246;59646;-67
2022/02/01 01:01:46;;;;;;;24.00;14.10;;;;;;;-1.39;67.49;96323.92;110279;1247;70925;-66
2022/02/01 01:04:16;;;;;;;32.30;18.30;;;;;;;-1.41;67.56;96324.51;110187;1245;68508;-66
2022/02/01 01:06:46;;;;;;;36.30;18.20;;;;;;;-1.44;67.51;96317.48;109980;1249;69352;-67
2022/02/01 01:09:16;;;;;;;;;;;;;;;-1.50;67.56;96311.40;110391;1244;60126;-68
2022/02/01 01:11:50;;;;;;;24.30;12.80;;;;;;;-1.57;67.82;96312.19;110454;1247;59679;-67
2022/02/01 01:18:22;;;;;;;24.50;11.40;;;;;;;-1.66;67.84;96316.17;110343;1247;67931;-67
2022/02/01 01:45:02;;;;;;;16.70;10.00;;;;;;;-1.73;68.51;96310.48;110265;1247;69632;-67
2022/02/01 01:53:21;;;;;;;19.70;9.70;;;;;;;-1.78;67.96;96314.47;110149;1247;59812;-68
2022/02/01 01:55:53;;;;;;;18.90;8.70;;;;;;;-1.78;67.74;96315.29;110220;1247;70685;-67
2022/02/01 01:58:25;;;;;;;18.20;8.30;;;;;;;-1.79;67.75;96313.30;110544;1246;68624;-65
2022/02/01 02:03:31;;;;;;;13.70;6.60;;;;;;;-1.81;67.64;96311.64;110186;1247;59716;-67
2022/02/01 02:06:02;;;;;;;13.10;7.10;;;;;;;-1.78;67.83;96306.09;110268;1247;59685;-69
2022/02/01 02:08:33;;;;;;;10.70;5.70;;;;;;;-1.78;67.69;96305.89;110283;1247;70826;-69
2022/02/01 02:11:07;;;;;;;13.50;5.90;;;;;;;-1.76;67.64;96300.52;110241;1246;67893;-67
2022/02/01 02:16:42;;;;;;;13.50;6.70;;;;;;;-1.72;67.55;96300.88;110304;1245;59762;-68
2022/02/01 02:19:11;;;;;;;16.70;8.20;;;;;;;-1.70;67.29;96301.50;110574;1244;59684;-67
2022/02/01 02:21:46;;;;;;;11.80;5.70;;;;;;;-1.70;67.51;96306.45;110582;1246;70803;-67
2022/02/01 02:24:16;;;;;;;10.80;7.50;;;;;;;-1.70;67.46;96307.48;110346;1247;68754;-66
2022/02/01 02:26:49;;;;;;;9.80;6.10;;;;;;;-1.71;67.68;96307.84;110464;1246;70042;-68
2022/02/01 02:29:19;;;;;;;14.60;8.00;;;;;;;-1.71;67.69;96306.84;110494;1246;59679;-66
2022/02/01 02:31:52;;;;;;;11.10;5.80;;;;;;;-1.73;67.60;96301.75;110273;1247;59661;-65
2022/02/01 02:34:24;;;;;;;14.50;7.50;;;;;;;-1.73;67.69;96301.10;110227;1247;70657;-67
2022/02/01 02:36:58;;;;;;;19.50;9.10;;;;;;;-1.76;67.28;96301.58;110411;1247;68483;-65
2022/02/01 02:39:33;;;;;;;14.70;7.80;;;;;;;-1.83;67.28;96307.63;110440;1245;69395;-66
2022/02/01 02:42:13;;;;;;;12.80;7.40;;;;;;;-1.86;67.63;96312.91;110549;1244;59737;-66
2022/02/01 02:45:05;;;;;;;14.70;8.50;;;;;;;-1.88;68.00;96314.51;110506;1246;60121;-65
2022/02/01 02:47:35;;;;;;;13.50;6.70;;;;;;;-1.89;68.07;96312.52;110552;1246;70517;-65
2022/02/01 02:50:05;;;;;;;;;;;;;;;-1.91;67.85;96305.77;110329;1246;68528;-65
2022/02/01 02:52:36;;;;;;;11.90;5.10;;;;;;;-1.92;67.89;96304.77;110323;1247;69002;-68
2022/02/01 02:55:07;;;;;;;6.80;3.80;;;;;;;-1.92;67.59;96308.70;110226;1247;59737;-65
2022/02/01 02:57:38;;;;;;;9.90;5.90;;;;;;;-1.91;67.04;96307.97;110380;1247;59602;-68
2022/02/01 03:00:09;;;;;;;14.30;6.60;;;;;;;-1.92;67.16;96305.11;110554;1247;70779;-66
2022/02/01 03:02:38;;;;;;;13.90;8.10;;;;;;;-1.92;67.50;96303.05;110175;1247;68120;-68
2022/02/01 03:05:08;;;;;;;9.90;6.00;;;;;;;-1.92;67.74;96299.30;110333;1244;69380;-65
2022/02/01 03:07:37;;;;;;;14.80;8.40;;;;;;;-1.92;67.84;96301.55;110487;1244;59680;-65
2022/02/01 03:10:07;;;;;;;19.00;9.70;;;;;;;-1.95;67.93;96304.20;110569;1246;59672;-67
2022/02/01 03:20:49;;;;;;;9.20;5.20;;;;;;;-2.10;68.26;96305.30;110183;1248;59747;-68
2022/02/01 03:23:18;;;;;;;11.50;6.60;;;;;;;-2.10;67.77;96313.66;110247;1247;59646;-68
2022/02/01 03:25:48;;;;;;;10.40;6.50;;;;;;;-2.10;68.02;96313.86;110352;1246;71551;-67
2022/02/01 03:28:18;;;;;;;21.20;9.10;;;;;;;-2.10;68.14;96316.77;110479;1246;68778;-67
2022/02/01 03:30:48;;;;;;;8.70;5.40;;;;;;;-2.12;68.09;96320.27;110452;1244;68457;-66
2022/02/01 03:33:19;;;;;;;11.50;6.60;;;;;;;-2.11;67.39;96323.12;110530;1245;59750;-67
2022/02/01 03:35:48;;;;;;;13.50;6.80;;;;;;;-2.10;67.28;96325.63;110352;1247;59728;-68
2022/02/01 03:38:17;;;;;;;13.40;7.70;;;;;;;-2.11;67.19;96317.98;110395;1247;70810;-70
2022/02/01 03:40:47;;;;;;;9.40;5.80;;;;;;;-2.12;67.29;96323.86;110396;1247;68369;-68
2022/02/01 03:43:17;;;;;;;17.20;7.60;;;;;;;-2.14;67.77;96332.60;110288;1247;68586;-67
2022/02/01 03:45:48;;;;;;;23.50;12.40;;;;;;;-2.14;68.15;96342.54;110296;1246;59716;-68
2022/02/01 03:48:18;;;;;;;22.40;10.60;;;;;;;-2.26;69.19;96346.60;110439;1245;60105;-68
2022/02/01 03:50:47;;;;;;;16.60;7.40;;;;;;;-2.36;69.26;96361.98;110538;1246;70771;-69
2022/02/01 03:53:17;;;;;;;9.30;6.50;;;;;;;-2.38;69.04;96368.89;110362;1246;67719;-68
2022/02/01 03:55:47;;;;;;;10.40;8.20;;;;;;;-2.37;69.01;96378.77;110255;1247;68706;-68
2022/02/01 03:58:17;;;;;;;15.50;8.20;;;;;;;-2.38;69.16;96382.19;110389;1247;59667;-66
2022/02/01 04:00:46;;;;;;;20.50;11.50;;;;;;;-2.39;69.37;96381.39;110448;1246;59631;-67
2022/02/01 04:03:16;;;;;;;25.90;13.10;;;;;;;-2.41;69.70;96368.34;110373;1246;71579;-67
2022/02/01 04:05:45;;;;;;;26.70;12.80;;;;;;;-2.48;69.28;96368.08;110542;1246;67840;-67
2022/02/01 04:08:17;;;;;;;24.80;11.20;;;;;;;-2.57;69.31;96361.25;110227;1247;69450;-66
2022/02/01 04:10:49;;;;;;;22.30;11.70;;;;;;;-2.66;69.60;96360.74;110263;1247;59678;-68
2022/02/01 04:13:20;;;;;;;20.40;10.70;;;;;;;-2.73;69.65;96360.50;110327;1247;59759;-67
2022/02/01 04:15:49;;;;;;;13.10;9.30;;;;;;;-2.78;69.39;96355.55;110202;1247;70492;-66
2022/02/01 04:18:19;;;;;;;16.30;9.30;;;;;;;-2.82;69.47;96357.58;110254;1246;67843;-70
2022/02/01 04:20:50;;;;;;;18.40;11.40;;;;;;;-2.85;69.88;96358.88;110523;1244;69342;-67
2022/02/01 04:23:20;;;;;;;31.10;17.00;;;;;;;-2.87;70.43;96360.47;110238;1247;59697;-66
2022/02/01 04:25:50;;;;;;;29.90;15.80;;;;;;;-2.92;71.15;96354.36;110531;1246;59662;-66
2022/02/01 04:28:19;;;;;;;23.20;13.50;;;;;;;-2.97;71.86;96349.42;110392;1246;70750;-67
2022/02/01 04:30:49;;;;;;;15.40;9.50;;;;;;;-2.96;71.50;96349.07;110349;1247;68518;-68
2022/02/01 04:33:18;;;;;;;13.90;9.70;;;;;;;-2.94;71.24;96354.45;110412;1247;68552;-68
2022/02/01 04:35:48;;;;;;;18.80;12.10;;;;;;;-2.93;71.39;96361.52;110504;1246;60008;-70
2022/02/01 04:38:17;;;;;;;14.80;7.70;;;;;;;-2.92;71.75;96367.81;110297;1247;59757;-66
2022/02/01 04:40:52;;;;;;;25.20;14.30;;;;;;;-2.89;70.73;96376.94;110267;1247;71254;-68
2022/02/01 04:43:22;;;;;;;31.30;18.20;;;;;;;-2.89;71.06;96378.98;110400;1246;68825;-68
2022/02/01 04:45:51;;;;;;;43.50;23.70;;;;;;;-2.91;70.72;96379.20;110205;1247;69277;-65
2022/02/01 04:48:20;;;;;;;36.70;20.00;;;;;;;-2.94;71.16;96382.39;110164;1247;59742;-65
2022/02/01 04:50:49;;;;;;;28.70;17.60;;;;;;;-2.95;71.30;96383.46;110147;1247;59647;-67
2022/02/01 04:53:18;;;;;;;22.40;12.40;;;;;;;-2.94;71.34;96389.75;110407;1247;72187;-67
2022/02/01 04:55:54;;;;;;;22.40;11.90;;;;;;;-2.93;71.42;96400.94;110210;1247;68595;-66
2022/02/01 04:58:25;;;;;;;18.70;10.10;;;;;;;-2.93;71.88;96406.92;110370;1246;67797;-65
2022/02/01 05:00:53;;;;;;;;;;;;;;;-2.95;71.73;96408.86;110242;1247;59685;-66
2022/02/01 05:03:23;;;;;;;20.60;10.70;;;;;;;-2.97;71.51;96411.98;110352;1247;60205;-65
2022/02/01 05:05:52;;;;;;;11.50;6.80;;;;;;;-2.96;71.21;96419.27;110378;1247;71771;-67
2022/02/01 05:08:24;;;;;;;22.30;15.00;;;;;;;-2.93;70.84;96423.45;110577;1246;69211;-68
2022/02/01 05:10:53;;;;;;;23.70;13.20;;;;;;;-2.94;71.09;96427.75;110428;1245;68612;-65
2022/02/01 05:13:51;;;;;;;31.00;16.10;;;;;;;-2.93;70.63;96434.34;110341;1246;59669;-67
2022/02/01 05:16:18;;;;;;;26.90;15.50;;;;;;;-2.93;70.84;96437.23;110560;1247;59653;-66
2022/02/01 05:18:50;;;;;;;27.20;15.90;;;;;;;-2.93;70.93;96441.52;110248;1246;70924;-67
2022/02/01 05:23:50;;;;;;;41.00;21.80;;;;;;;-3.00;71.42;96440.60;110526;1247;68600;-66
2022/02/01 05:26:22;;;;;;;34.60;20.30;;;;;;;-3.04;71.79;96441.58;110212;1247;59761;-68
2022/02/01 05:28:52;;;;;;;30.40;19.00;;;;;;;-3.12;72.14;96448.66;110558;1245;59669;-66
2022/02/01 05:31:23;;;;;;;31.80;17.10;;;;;;;-3.18;72.14;96449.71;110451;1246;70786;-67
2022/02/01 05:33:52;;;;;;;22.80;15.10;;;;;;;-3.21;72.27;96449.64;110380;1247;68591;-67
2022/02/01 05:36:22;;;;;;;29.60;16.30;;;;;;;-3.22;72.20;96458.20;110369;1246;68772;-67
2022/02/01 05:38:53;;;;;;;24.80;15.40;;;;;;;-3.26;72.03;96459.00;110247;1247;59734;-68
2022/02/01 05:41:25;;;;;;;30.10;17.60;;;;;;;-3.30;72.55;96457.10;110126;1247;59625;-67
2022/02/01 05:43:55;;;;;;;32.10;18.50;;;;;;;-3.33;73.01;96455.48;110286;1247;71560;-68
2022/02/01 05:46:24;;;;;;;28.00;18.30;;;;;;;-3.36;73.11;96456.09;110552;1244;68046;-66
2022/02/01 05:48:53;;;;;;;35.80;18.60;;;;;;;-3.40;72.68;96460.66;110516;1244;68981;-66
2022/02/01 05:51:24;;;;;;;28.90;17.30;;;;;;;-3.44;72.97;96464.20;110439;1244;59761;-67
2022/02/01 05:53:53;;;;;;;23.60;13.40;;;;;;;-3.46;72.85;96468.87;110363;1244;59722;-68
2022/02/01 05:56:23;;;;;;;17.30;11.10;;;;;;;-3.44;72.85;96469.16;110409;1244;70585;-66
2022/02/01 05:58:53;;;;;;;14.80;9.50;;;;;;;-3.43;72.76;96470.31;110388;1247;67988;-67
2022/02/01 06:01:22;;;;;;;15.70;9.80;;;;;;;-3.43;72.81;96477.80;110429;1247;69529;-68
2022/02/01 06:03:51;;;;;;;15.30;7.00;;;;;;;-3.40;72.96;96478.71;110398;1245;59665;-66
2022/02/01 06:06:21;;;;;;;21.50;13.10;;;;;;;-3.31;72.36;96484.05;110489;1245;59700;-67
2022/02/01 06:08:49;;;;;;;23.10;13.70;;;;;;;-3.25;72.21;96490.34;110517;1244;71533;-66
2022/02/01 06:11:18;;;;;;;27.40;15.80;;;;;;;-3.22;72.30;96497.89;110494;1245;68586;-66
2022/02/01 06:13:47;;;;;;;34.80;22.20;;;;;;;-3.18;72.15;96504.08;110346;1244;68795;-66
2022/02/01 06:16:17;;;;;;;33.30;17.40;;;;;;;-3.13;71.69;96504.58;110382;1247;59671;-67
2022/02/01 06:18:49;;;;;;;25.20;16.00;;;;;;;-3.08;71.53;96506.13;110293;1247;59656;-66
2022/02/01 06:21:18;;;;;;;27.30;14.90;;;;;;;-3.04;71.34;96512.81;110345;1244;70775;-65
2022/02/01 06:23:47;;;;;;;24.20;15.50;;;;;;;-2.99;71.22;96516.39;110366;1244;67876;-67
2022/02/01 06:26:16;;;;;;;20.20;13.50;;;;;;;-2.92;71.10;96515.66;110136;1245;69845;-66
2022/02/01 06:28:46;;;;;;;26.20;14.30;;;;;;;-2.83;70.83;96518.26;110395;1244;59861;-66
2022/02/01 06:31:16;;;;;;;23.60;14.00;;;;;;;-2.73;70.85;96519.45;110395;1244;59792;-67
2022/02/01 06:33:45;;;;;;;15.70;8.70;;;;;;;-2.62;70.73;96527.59;110329;1245;72249;-66
2022/02/01 06:36:14;;;;;;;14.70;10.10;;;;;;;-2.50;70.25;96526.30;110403;1244;67794;-67
2022/02/01 06:38:44;;;;;;;17.90;9.60;;;;;;;-2.39;70.02;96526.46;110342;1244;69419;-66
2022/02/01 06:41:13;;;;;;;19.70;11.70;;;;;;;-2.31;69.73;96524.44;110431;1244;59626;-65
2022/02/01 06:43:49;;;;;;;25.90;12.30;;;;;;;-2.23;69.63;96528.10;110454;1244;59674;-65
2022/02/01 06:46:19;;;;;;;34.50;21.80;;;;;;;-2.17;69.89;96533.84;110441;1244;71180;-65
2022/02/01 06:48:48;;;;;;;33.60;17.90;;;;;;;-2.10;70.09;96534.61;110162;1245;68694;-66
2022/02/01 06:51:19;;;;;;;23.10;12.40;;;;;;;-2.05;69.92;96540.08;110485;1247;69368;-65
2022/02/01 06:53:48;;;;;;;17.50;11.90;;;;;;;-2.00;69.93;96542.44;110397;1246;59753;-65
2022/02/01 06:56:19;;;;;;;19.50;10.00;;;;;;;-1.94;69.99;96542.58;109827;1250;59699;-65
2022/02/01 06:58:48;;;;;;;23.30;12.90;;;;;;;-1.87;69.44;96544.70;110565;1244;72144;-65
2022/02/01 07:01:17;;;;;;;22.20;14.50;;;;;;;-1.83;69.43;96542.16;109642;1247;736355;-67
2022/02/01 07:03:46;;;;;;;17.40;11.00;;;;;;;-1.78;69.35;96546.77;110253;1247;69496;-65
2022/02/01 07:06:16;;;;;;;17.80;11.30;;;;;;;-1.73;69.19;96543.00;110394;1245;59811;-65
2022/02/01 07:08:47;;;;;;;21.10;9.60;;;;;;;-1.68;68.99;96541.76;110393;1245;59737;-64
2022/02/01 07:11:18;;;;;;;14.70;8.60;;;;;;;-1.65;68.54;96545.91;110434;1244;70626;-66
2022/02/01 07:13:49;;;;;;;13.80;7.90;;;;;;;-1.61;68.69;96555.33;110592;1244;68823;-66
2022/02/01 07:16:20;;;;;;;18.80;9.40;;;;;;;-1.54;68.43;96552.85;110494;1245;68602;-64
2022/02/01 07:18:53;;;;;;;13.00;8.60;;;;;;;-1.49;68.16;96551.98;110539;1245;59666;-67
2022/02/01 07:21:25;;;;;;;18.20;9.40;;;;;;;-1.44;68.11;96556.73;110257;1247;59741;-67
2022/02/01 07:23:54;;;;;;;13.40;7.90;;;;;;;-1.37;67.96;96562.27;110265;1247;72263;-66
2022/02/01 07:26:23;;;;;;;10.80;6.60;;;;;;;-1.30;67.90;96564.88;110587;1244;68044;-65
2022/02/01 07:28:52;;;;;;;14.20;9.30;;;;;;;-1.23;67.66;96567.89;109985;1247;69501;-65
2022/02/01 07:31:22;;;;;;;18.00;11.10;;;;;;;-1.20;67.60;96567.26;110108;1247;59664;-65
2022/02/01 07:33:51;;;;;;;23.30;14.80;;;;;;;-1.15;67.51;96576.64;110078;1248;59712;-65
2022/02/01 07:36:20;;;;;;;23.10;12.40;;;;;;;-1.12;67.38;96578.53;110590;1244;70974;-65
2022/02/01 07:38:49;;;;;;;26.70;12.10;;;;;;;-1.10;67.40;96573.16;110402;1244;68822;-64
2022/02/01 07:41:18;;;;;;;20.60;11.80;;;;;;;-1.06;67.45;96574.73;110378;1244;69852;-64
2022/02/01 07:43:47;;;;;;;15.70;9.30;;;;;;;-0.99;67.48;96576.32;110105;1247;59672;-67
2022/02/01 07:46:16;;;;;;;17.80;8.80;;;;;;;-0.89;67.35;96578.48;110550;1244;59690;-65
2022/02/01 07:48:45;;;;;;;9.10;7.00;;;;;;;-0.77;67.17;96584.17;110365;1244;71710;-67
2022/02/01 07:51:14;;;;;;;10.80;7.90;;;;;;;-0.66;67.02;96593.11;110410;1247;68722;-65
2022/02/01 07:53:44;;;;;;;13.70;9.10;;;;;;;-0.55;66.84;96594.41;110092;1247;67510;-65
2022/02/01 07:56:13;;;;;;;21.30;12.60;;;;;;;-0.45;66.20;96596.03;110361;1244;59654;-67
2022/02/01 07:58:43;;;;;;;14.70;9.60;;;;;;;-0.33;67.22;96594.81;110563;1244;59659;-66
2022/02/01 08:01:11;;;;;;;20.20;11.90;;;;;;;-0.15;67.34;96595.61;110393;1247;71564;-65
2022/02/01 08:03:41;;;;;;;31.60;17.80;;;;;;;-0.01;65.71;96594.14;110413;1244;68809;-66
2022/02/01 08:06:12;;;;;;;24.70;16.80;;;;;;;0.08;65.71;96598.69;110457;1244;69871;-66
2022/02/01 08:08:41;;;;;;;36.50;22.00;;;;;;;0.18;65.34;96596.17;110643;1245;59703;-65
2022/02/01 08:11:14;;;;;;;30.70;20.10;;;;;;;0.28;65.18;96596.08;110409;1245;59750;-65
2022/02/01 08:14:42;;;;;;;34.90;22.10;;;;;;;0.39;64.64;96592.33;110484;1244;71507;-65
2022/02/01 08:17:10;;;;;;;36.10;20.80;;;;;;;0.46;63.67;96589.27;110500;1245;69174;-66
2022/02/01 08:19:55;;;;;;;34.70;19.40;;;;;;;0.49;63.05;96591.52;110532;1245;69468;-67
2022/02/01 08:25:09;;;;;;;41.40;24.60;;;;;;;0.61;62.08;96590.85;110561;1245;59673;-66
2022/02/01 08:27:41;;;;;;;35.20;20.90;;;;;;;0.67;61.72;96588.00;110533;1244;71516;-65
2022/02/01 08:30:12;;;;;;;55.70;35.50;;;;;;;0.76;61.58;96583.44;110124;1246;68859;-68
2022/02/01 08:32:40;;;;;;;;;;;;;;;0.87;61.61;96580.84;110154;1244;68469;-65
2022/02/01 08:35:10;;;;;;;45.40;26.80;;;;;;;0.99;61.21;96588.19;110097;1247;59753;-67
2022/02/01 08:37:39;;;;;;;45.20;25.30;;;;;;;1.09;60.64;96591.67;110607;1247;59682;-65
2022/02/01 08:40:12;;;;;;;27.50;14.70;;;;;;;1.18;60.30;96583.31;110440;1244;70989;-67
2022/02/01 08:42:42;;;;;;;30.90;17.10;;;;;;;1.24;59.62;96578.89;110299;1247;69351;-66
2022/02/01 08:45:13;;;;;;;27.40;15.80;;;;;;;1.33;59.86;96578.83;110439;1245;70004;-65
2022/02/01 08:47:43;;;;;;;37.20;17.40;;;;;;;1.39;59.67;96583.66;110436;1244;59740;-65
2022/02/01 08:50:12;;;;;;;25.00;14.00;;;;;;;1.47;59.15;96574.86;110434;1244;59693;-65
2022/02/01 08:52:46;;;;;;;28.40;15.90;;;;;;;1.60;58.41;96569.06;110127;1247;72217;-65
2022/02/01 08:55:34;;;;;;;24.70;13.90;;;;;;;1.73;58.01;96567.70;110449;1245;69706;-65
2022/02/01 08:58:04;;;;;;;30.30;15.10;;;;;;;1.88;58.15;96560.94;110456;1247;69546;-65
2022/02/01 09:00:34;;;;;;;25.60;13.50;;;;;;;2.08;58.44;96567.12;110577;1247;59735;-66
2022/02/01 09:03:06;;;;;;;22.60;12.70;;;;;;;2.26;57.42;96569.44;110442;1244;59609;-65
2022/02/01 09:05:36;;;;;;;35.80;19.60;;;;;;;2.44;56.22;96576.55;110565;1245;72189;-65
2022/02/01 09:08:05;;;;;;;28.10;16.20;;;;;;;2.50;56.05;96581.91;110578;1247;68053;-65
2022/02/01 09:10:34;;;;;;;21.50;14.50;;;;;;;2.57;56.79;96587.88;110251;1247;68769;-65
2022/02/01 09:13:04;;;;;;;15.80;11.40;;;;;;;2.66;56.47;96588.48;110520;1245;59730;-66
2022/02/01 09:15:34;;;;;;;17.00;10.70;;;;;;;2.70;55.74;96590.13;110185;1247;59676;-66
2022/02/01 09:18:03;;;;;;;23.40;15.20;;;;;;;2.75;55.02;96590.34;110490;1247;71973;-65
2022/02/01 09:20:32;;;;;;;18.60;11.20;;;;;;;2.83;54.74;96586.29;110581;1246;68505;-67
2022/02/01 09:23:02;;;;;;;32.40;19.10;;;;;;;2.93;55.08;96578.20;110528;1244;70142;-67
2022/02/01 09:25:31;;;;;;;27.40;16.50;;;;;;;2.99;53.89;96571.46;110569;1245;59751;-67
2022/02/01 09:28:00;;;;;;;23.10;16.10;;;;;;;3.09;55.08;96571.77;110597;1244;59674;-66
2022/02/01 09:30:31;;;;;;;18.40;12.70;;;;;;;3.17;54.39;96572.22;110586;1247;70003;-66
2022/02/01 09:33:01;;;;;;;18.40;11.30;;;;;;;3.25;54.54;96573.95;110277;1248;68369;-67
2022/02/01 09:35:30;;;;;;;16.60;10.30;;;;;;;3.35;53.30;96572.20;110447;1246;69391;-67
2022/02/01 09:37:59;;;;;;;17.40;10.60;;;;;;;3.40;54.16;96569.33;110468;1247;59708;-66
2022/02/01 09:40:46;;;;;;;17.00;9.20;;;;;;;3.36;53.53;96562.98;110162;1248;59699;-67
2022/02/01 09:43:17;;;;;;;15.30;8.80;;;;;;;3.36;53.91;96564.73;110212;1247;71009;-66
2022/02/01 09:45:46;;;;;;;21.60;11.00;;;;;;;3.29;52.80;96567.00;110494;1245;69024;-67
2022/02/01 09:48:35;;;;;;;24.70;13.90;;;;;;;3.16;52.10;96570.88;110464;1245;69439;-66
2022/02/01 09:51:07;;;;;;;38.30;19.10;;;;;;;3.03;52.25;96564.86;110339;1247;59667;-65
2022/02/01 09:53:38;;;;;;;30.00;15.40;;;;;;;2.94;52.87;96563.30;110529;1247;59689;-62
2022/02/01 09:56:09;;;;;;;23.00;11.70;;;;;;;2.93;53.50;96562.86;110435;1244;70393;-66
2022/02/01 09:58:40;;;;;;;14.30;8.40;;;;;;;2.95;52.64;96562.92;110327;1244;67606;-66
2022/02/01 10:01:18;;;;;;;14.00;8.40;;;;;;;3.00;53.41;96561.09;110440;1244;70006;-65
2022/02/01 10:04:07;;;;;;;13.00;6.90;;;;;;;3.08;53.45;96563.76;110218;1248;59735;-65
2022/02/01 10:06:44;;;;;;;19.50;10.50;;;;;;;3.15;52.93;96561.80;110529;1245;59741;-65
2022/02/01 10:09:32;;;;;;;13.60;7.20;;;;;;;3.17;53.31;96558.42;110405;1247;71781;-66
2022/02/01 10:12:02;;;;;;;19.10;9.80;;;;;;;3.22;52.75;96561.77;110411;1244;69255;-67
2022/02/01 10:14:40;;;;;;;19.80;9.00;;;;;;;3.25;52.44;96560.70;110103;1247;70385;-65
2022/02/01 10:17:10;;;;;;;16.50;8.10;;;;;;;3.32;52.09;96559.61;110406;1245;59688;-66
2022/02/01 10:19:47;;;;;;;15.50;9.20;;;;;;;3.36;52.06;96555.09;110409;1247;59692;-65
2022/02/01 10:22:16;;;;;;;16.20;9.00;;;;;;;3.36;51.87;96550.08;110201;1247;71616;-66
2022/02/01 10:24:45;;;;;;;17.10;9.70;;;;;;;3.44;52.07;96547.23;110246;1247;68576;-66
2022/02/01 10:27:19;;;;;;;14.80;8.10;;;;;;;3.53;51.59;96541.84;110297;1245;69193;-66
2022/02/01 10:30:17;;;;;;;20.00;11.70;;;;;;;3.67;51.88;96541.07;110125;1247;59769;-66
2022/02/01 10:35:56;;;;;;;22.00;13.50;;;;;;;3.83;50.63;96537.00;110403;1246;71967;-65
2022/02/01 10:38:34;;;;;;;22.80;14.30;;;;;;;3.78;51.01;96533.63;110131;1247;68522;-65
2022/02/01 10:41:04;;;;;;;16.70;10.20;;;;;;;3.54;50.95;96530.25;110290;1247;68648;-66
2022/02/01 10:43:34;;;;;;;16.80;10.40;;;;;;;3.48;51.68;96524.59;110413;1247;59671;-66
2022/02/01 10:46:10;;;;;;;17.80;10.90;;;;;;;3.50;51.56;96526.88;110405;1244;59590;-65
2022/02/01 10:48:52;;;;;;;24.90;12.10;;;;;;;3.48;51.19;96528.71;110515;1247;71581;-67
2022/02/01 10:51:26;;;;;;;19.60;11.20;;;;;;;3.46;50.78;96527.30;110126;1247;69040;-66
2022/02/01 10:53:56;;;;;;;15.40;9.80;;;;;;;3.48;51.31;96531.61;110280;1247;69374;-66
2022/02/01 10:56:26;;;;;;;19.70;9.60;;;;;;;3.61;51.46;96532.27;110579;1244;59741;-65
2022/02/01 10:58:55;;;;;;;17.90;8.50;;;;;;;3.68;51.25;96531.00;110614;1244;59744;-66
2022/02/01 11:01:26;;;;;;;21.80;10.70;;;;;;;3.87;50.69;96532.79;110591;1244;72043;-66
2022/02/01 11:03:59;;;;;;;18.50;8.40;;;;;;;4.01;50.15;96533.84;110453;1245;67532;-68
2022/02/01 11:06:32;;;;;;;17.20;8.10;;;;;;;4.08;50.51;96530.50;110468;1247;69358;-65
2022/02/01 11:09:02;;;;;;;14.80;7.20;;;;;;;4.16;49.53;96530.49;110552;1247;59742;-67
2022/02/01 11:11:31;;;;;;;10.30;6.30;;;;;;;4.33;50.17;96531.36;110541;1244;59695;-67
2022/02/01 11:14:00;;;;;;;12.30;6.60;;;;;;;4.50;50.42;96531.85;110608;1245;71674;-67
2022/02/01 11:16:29;;;;;;;16.90;10.20;;;;;;;4.66;50.96;96528.08;110450;1247;68566;-67
2022/02/01 11:19:07;;;;;;;21.10;12.30;;;;;;;4.83;51.09;96526.67;110490;1247;70009;-67
2022/02/01 11:21:49;;;;;;;41.30;25.70;;;;;;;4.93;50.52;96518.26;110325;1247;59709;-68
2022/02/01 11:24:31;;;;;;;32.00;20.20;;;;;;;4.98;50.87;96517.13;110535;1244;59748;-66
2022/02/01 11:27:18;;;;;;;34.30;21.20;;;;;;;5.06;50.27;96520.54;110525;1244;71624;-66
2022/02/01 11:32:36;;;;;;;29.80;19.80;;;;;;;5.07;49.80;96511.65;110543;1247;69356;-66
2022/02/01 11:35:16;;;;;;;32.60;22.30;;;;;;;5.01;50.01;96514.95;110275;1245;59731;-66
2022/02/01 11:38:06;;;;;;;33.00;21.20;;;;;;;5.00;50.32;96514.90;110471;1247;59737;-68
2022/02/01 11:40:46;;;;;;;32.50;21.40;;;;;;;4.97;49.99;96508.19;110490;1244;72129;-69
2022/02/01 11:43:36;;;;;;;29.80;19.50;;;;;;;5.02;50.34;96507.68;110537;1244;68998;-66
2022/02/01 11:46:12;;;;;;;25.40;18.70;;;;;;;5.09;50.43;96508.23;110464;1244;69422;-67
2022/02/01 11:48:50;;;;;;;27.70;16.90;;;;;;;5.21;50.27;96510.73;110602;1244;59681;-65
2022/02/01 11:51:24;;;;;;;27.50;17.40;;;;;;;5.30;49.34;96514.95;110612;1244;59674;-68
2022/02/01 11:54:01;;;;;;;32.20;21.70;;;;;;;5.35;49.47;96523.61;110595;1244;71476;-66
2022/02/01 11:56:37;;;;;;;27.70;18.20;;;;;;;5.32;49.24;96526.80;110645;1244;67536;-68
2022/02/01 11:59:07;;;;;;;26.40;18.30;;;;;;;5.28;49.06;96521.17;110546;1244;68462;-67
2022/02/01 12:01:38;;;;;;;31.80;22.10;;;;;;;5.18;49.39;96518.37;110614;1244;59737;-65
2022/02/01 12:04:11;;;;;;;28.20;17.70;;;;;;;5.14;49.86;96521.45;110608;1245;59628;-68
2022/02/01 12:06:48;;;;;;;89.40;47.00;;;;;;;5.18;49.72;96522.19;110565;1245;72248;-66
2022/02/01 12:09:23;;;;;;;60.50;31.30;;;;;;;5.24;49.36;96526.45;110597;1244;68550;-66
2022/02/01 12:11:57;;;;;;;42.80;23.90;;;;;;;5.28;49.37;96528.76;110434;1244;70058;-66
2022/02/01 12:14:27;;;;;;;47.70;28.50;;;;;;;5.42;49.31;96524.20;110480;1244;59689;-68
2022/02/01 12:16:57;;;;;;;38.40;23.40;;;;;;;5.57;49.20;96519.77;110437;1245;59602;-67
2022/02/01 12:19:35;;;;;;;37.10;22.60;;;;;;;5.70;48.67;96519.58;110597;1244;71599;-67
2022/02/01 12:22:48;;;;;;;24.80;15.30;;;;;;;5.83;48.25;96522.86;110521;1245;69139;-68
2022/02/01 12:25:18;;;;;;;24.80;14.30;;;;;;;5.97;48.19;96522.27;110513;1244;69253;-65
2022/02/01 12:27:48;;;;;;;17.80;11.30;;;;;;;6.10;47.29;96516.20;110262;1247;59679;-68
2022/02/01 12:30:19;;;;;;;15.80;9.80;;;;;;;6.17;47.22;96522.63;110530;1247;59666;-67
2022/02/01 12:32:49;;;;;;;16.40;11.10;;;;;;;6.19;46.83;96520.78;110275;1244;71534;-70
2022/02/01 12:35:33;;;;;;;16.40;8.60;;;;;;;6.18;46.68;96524.83;110470;1246;68986;-66
2022/02/01 12:38:13;;;;;;;12.80;7.90;;;;;;;6.19;47.10;96525.63;110501;1244;69861;-67
2022/02/01 12:40:42;;;;;;;;;;;;;;;6.18;46.95;96516.05;110485;1244;59677;-68
2022/02/01 12:43:17;;;;;;;13.50;7.10;;;;;;;6.11;47.17;96513.52;110487;1244;59634;-68
2022/02/01 12:45:57;;;;;;;23.40;10.60;;;;;;;6.09;47.36;96515.03;110466;1244;71953;-68
2022/02/01 12:48:26;;;;;;;13.10;10.00;;;;;;;6.05;47.59;96519.80;110532;1244;68585;-66
2022/02/01 12:51:00;;;;;;;12.80;7.80;;;;;;;6.02;47.83;96518.45;110501;1247;69849;-68
2022/02/01 12:53:42;;;;;;;18.20;7.70;;;;;;;5.97;47.49;96522.64;110518;1244;59678;-68
2022/02/01 12:56:20;;;;;;;14.90;6.90;;;;;;;5.85;47.51;96519.07;110505;1244;59641;-67
2022/02/01 12:58:59;;;;;;;8.60;5.90;;;;;;;5.76;48.30;96520.71;110292;1247;70873;-70
2022/02/01 13:01:36;;;;;;;17.40;7.60;;;;;;;5.72;47.63;96526.06;110486;1246;68753;-67
2022/02/01 13:04:07;;;;;;;9.50;6.80;;;;;;;5.64;48.14;96527.77;110504;1245;68728;-68